sensor_id;sensor_type;location;lat;lon;timestamp;P1;durP1;ratioP1;P2;durP2;ratioP2
25936;SDS011;13733;51.178;4.450;2023-04-25T00:01:28;22.60;;;4.32;;
25936;SDS011;13733;51.178;4.450;2023-04-25T00:03:54;15.07;;;3.90;;
25936;SDS011;13733;51.178;4.450;2023-04-25T00:06:20;19.23;;;4.13;;
25936;SDS011;13733;51.178;4.450;2023-04-25T00:08:45;20.83;;;4.32;;
25936;SDS011;13733;51.178;4.450;2023-04-25T00:11:11;20.65;;;4.22;;
25936;SDS011;13733;51.178;4.450;2023-04-25T00:13:37;12.25;;;4.03;;
25936;SDS011;13733;51.178;4.450;2023-04-25T00:16:06;23.67;;;4.68;;
25936;SDS011;13733;51.178;4.450;2023-04-25T00:18:33;13.90;;;4.28;;
25936;SDS011;13733;51.178;4.450;2023-04-25T00:20:58;16.40;;;3.97;;
25936;SDS011;13733;51.178;4.450;2023-04-25T00:23:24;15.80;;;4.15;;
25936;SDS011;13733;51.178;4.450;2023-04-25T00:25:50;20.45;;;4.75;;
25936;SDS011;13733;51.178;4.450;2023-04-25T00:28:16;17.15;;;4.38;;
25936;SDS011;13733;51.178;4.450;2023-04-25T00:30:42;24.38;;;4.40;;
25936;SDS011;13733;51.178;4.450;2023-04-25T00:33:08;17.25;;;3.78;;
25936;SDS011;13733;51.178;4.450;2023-04-25T00:35:35;18.17;;;4.20;;
25936;SDS011;13733;51.178;4.450;2023-04-25T00:38:01;18.52;;;4.32;;
25936;SDS011;13733;51.178;4.450;2023-04-25T00:40:27;17.98;;;4.40;;
25936;SDS011;13733;51.178;4.450;2023-04-25T00:42:53;20.65;;;4.90;;
25936;SDS011;13733;51.178;4.450;2023-04-25T00:45:20;22.52;;;4.13;;
25936;SDS011;13733;51.178;4.450;2023-04-25T00:47:45;23.35;;;4.80;;
25936;SDS011;13733;51.178;4.450;2023-04-25T00:50:12;16.55;;;4.00;;
25936;SDS011;13733;51.178;4.450;2023-04-25T00:52:39;21.48;;;5.18;;
25936;SDS011;13733;51.178;4.450;2023-04-25T00:55:08;19.17;;;4.20;;
25936;SDS011;13733;51.178;4.450;2023-04-25T00:57:35;16.50;;;3.80;;
25936;SDS011;13733;51.178;4.450;2023-04-25T01:00:03;14.50;;;4.03;;
25936;SDS011;13733;51.178;4.450;2023-04-25T01:02:31;19.17;;;4.40;;
25936;SDS011;13733;51.178;4.450;2023-04-25T01:04:58;18.80;;;4.97;;
25936;SDS011;13733;51.178;4.450;2023-04-25T01:07:24;22.73;;;5.28;;
25936;SDS011;13733;51.178;4.450;2023-04-25T01:09:54;21.48;;;5.10;;
25936;SDS011;13733;51.178;4.450;2023-04-25T01:12:20;17.67;;;4.53;;
25936;SDS011;13733;51.178;4.450;2023-04-25T01:14:46;19.55;;;4.20;;
25936;SDS011;13733;51.178;4.450;2023-04-25T01:17:12;20.88;;;5.35;;
25936;SDS011;13733;51.178;4.450;2023-04-25T01:19:38;16.85;;;5.07;;
25936;SDS011;13733;51.178;4.450;2023-04-25T01:22:03;26.33;;;4.47;;
25936;SDS011;13733;51.178;4.450;2023-04-25T01:24:31;20.77;;;5.05;;
25936;SDS011;13733;51.178;4.450;2023-04-25T01:26:57;18.52;;;4.55;;
25936;SDS011;13733;51.178;4.450;2023-04-25T01:29:25;18.98;;;4.28;;
25936;SDS011;13733;51.178;4.450;2023-04-25T01:31:53;22.50;;;5.15;;
25936;SDS011;13733;51.178;4.450;2023-04-25T01:34:20;17.67;;;4.40;;
25936;SDS011;13733;51.178;4.450;2023-04-25T01:36:47;20.83;;;4.18;;
25936;SDS011;13733;51.178;4.450;2023-04-25T01:39:15;21.52;;;4.93;;
25936;SDS011;13733;51.178;4.450;2023-04-25T01:41:41;16.42;;;4.97;;
25936;SDS011;13733;51.178;4.450;2023-04-25T01:44:08;18.63;;;4.32;;
25936;SDS011;13733;51.178;4.450;2023-04-25T01:46:35;20.85;;;4.40;;
25936;SDS011;13733;51.178;4.450;2023-04-25T01:49:01;16.08;;;4.50;;
25936;SDS011;13733;51.178;4.450;2023-04-25T01:51:27;29.05;;;4.80;;
25936;SDS011;13733;51.178;4.450;2023-04-25T01:53:53;20.30;;;4.45;;
25936;SDS011;13733;51.178;4.450;2023-04-25T01:56:21;20.13;;;4.68;;
25936;SDS011;13733;51.178;4.450;2023-04-25T01:58:46;16.30;;;4.53;;
25936;SDS011;13733;51.178;4.450;2023-04-25T02:01:30;20.08;;;5.65;;
25936;SDS011;13733;51.178;4.450;2023-04-25T02:04:13;24.35;;;5.00;;
25936;SDS011;13733;51.178;4.450;2023-04-25T02:06:40;19.60;;;4.55;;
25936;SDS011;13733;51.178;4.450;2023-04-25T02:09:06;24.05;;;5.07;;
25936;SDS011;13733;51.178;4.450;2023-04-25T02:11:32;23.80;;;5.45;;
25936;SDS011;13733;51.178;4.450;2023-04-25T02:14:16;27.27;;;5.82;;
25936;SDS011;13733;51.178;4.450;2023-04-25T02:17:08;26.50;;;4.88;;
25936;SDS011;13733;51.178;4.450;2023-04-25T02:19:34;23.70;;;4.95;;
25936;SDS011;13733;51.178;4.450;2023-04-25T02:22:00;16.40;;;4.85;;
25936;SDS011;13733;51.178;4.450;2023-04-25T02:24:26;22.20;;;5.32;;
25936;SDS011;13733;51.178;4.450;2023-04-25T02:26:54;19.67;;;4.97;;
25936;SDS011;13733;51.178;4.450;2023-04-25T02:29:23;24.02;;;5.05;;
25936;SDS011;13733;51.178;4.450;2023-04-25T02:31:48;27.75;;;6.00;;
25936;SDS011;13733;51.178;4.450;2023-04-25T02:34:16;16.52;;;4.57;;
25936;SDS011;13733;51.178;4.450;2023-04-25T02:36:41;18.33;;;5.45;;
25936;SDS011;13733;51.178;4.450;2023-04-25T02:39:07;21.52;;;5.88;;
25936;SDS011;13733;51.178;4.450;2023-04-25T02:41:33;20.10;;;4.80;;
25936;SDS011;13733;51.178;4.450;2023-04-25T02:43:59;23.52;;;5.57;;
25936;SDS011;13733;51.178;4.450;2023-04-25T02:46:25;19.75;;;5.07;;
25936;SDS011;13733;51.178;4.450;2023-04-25T02:48:50;18.55;;;5.45;;
25936;SDS011;13733;51.178;4.450;2023-04-25T02:51:16;18.52;;;4.50;;
25936;SDS011;13733;51.178;4.450;2023-04-25T02:53:42;15.52;;;4.80;;
25936;SDS011;13733;51.178;4.450;2023-04-25T02:56:08;15.27;;;4.50;;
25936;SDS011;13733;51.178;4.450;2023-04-25T02:58:34;17.50;;;5.13;;
25936;SDS011;13733;51.178;4.450;2023-04-25T03:00:59;24.95;;;5.63;;
25936;SDS011;13733;51.178;4.450;2023-04-25T03:03:25;18.92;;;5.57;;
25936;SDS011;13733;51.178;4.450;2023-04-25T03:05:51;19.65;;;5.00;;
25936;SDS011;13733;51.178;4.450;2023-04-25T03:08:22;14.10;;;4.97;;
25936;SDS011;13733;51.178;4.450;2023-04-25T03:10:48;24.40;;;6.53;;
25936;SDS011;13733;51.178;4.450;2023-04-25T03:13:16;19.40;;;5.40;;
25936;SDS011;13733;51.178;4.450;2023-04-25T03:15:43;21.40;;;5.63;;
25936;SDS011;13733;51.178;4.450;2023-04-25T03:18:09;18.75;;;5.50;;
25936;SDS011;13733;51.178;4.450;2023-04-25T03:20:34;22.50;;;5.40;;
25936;SDS011;13733;51.178;4.450;2023-04-25T03:23:02;24.17;;;6.30;;
25936;SDS011;13733;51.178;4.450;2023-04-25T03:25:29;19.15;;;6.10;;
25936;SDS011;13733;51.178;4.450;2023-04-25T03:27:54;26.55;;;6.35;;
25936;SDS011;13733;51.178;4.450;2023-04-25T03:30:21;25.70;;;6.40;;
25936;SDS011;13733;51.178;4.450;2023-04-25T03:32:47;20.83;;;6.20;;
25936;SDS011;13733;51.178;4.450;2023-04-25T03:35:16;17.98;;;5.50;;
25936;SDS011;13733;51.178;4.450;2023-04-25T03:37:41;25.33;;;6.00;;
25936;SDS011;13733;51.178;4.450;2023-04-25T03:40:13;22.65;;;5.70;;
25936;SDS011;13733;51.178;4.450;2023-04-25T03:43:05;25.33;;;5.72;;
25936;SDS011;13733;51.178;4.450;2023-04-25T03:45:32;25.63;;;5.25;;
25936;SDS011;13733;51.178;4.450;2023-04-25T03:47:58;24.90;;;6.20;;
25936;SDS011;13733;51.178;4.450;2023-04-25T03:50:26;18.10;;;5.25;;
25936;SDS011;13733;51.178;4.450;2023-04-25T03:52:52;21.05;;;5.05;;
25936;SDS011;13733;51.178;4.450;2023-04-25T03:55:18;23.02;;;6.10;;
25936;SDS011;13733;51.178;4.450;2023-04-25T03:57:44;20.23;;;5.15;;
25936;SDS011;13733;51.178;4.450;2023-04-25T04:00:10;28.90;;;5.57;;
25936;SDS011;13733;51.178;4.450;2023-04-25T04:02:39;27.75;;;6.43;;
25936;SDS011;13733;51.178;4.450;2023-04-25T04:05:06;21.48;;;5.63;;
25936;SDS011;13733;51.178;4.450;2023-04-25T04:07:36;21.40;;;5.68;;
25936;SDS011;13733;51.178;4.450;2023-04-25T04:10:09;21.05;;;5.80;;
25936;SDS011;13733;51.178;4.450;2023-04-25T04:12:38;24.88;;;6.25;;
25936;SDS011;13733;51.178;4.450;2023-04-25T04:15:04;24.95;;;5.72;;
25936;SDS011;13733;51.178;4.450;2023-04-25T04:17:31;19.65;;;5.30;;
25936;SDS011;13733;51.178;4.450;2023-04-25T04:19:58;21.10;;;5.70;;
25936;SDS011;13733;51.178;4.450;2023-04-25T04:22:24;24.63;;;5.13;;
25936;SDS011;13733;51.178;4.450;2023-04-25T04:24:53;17.58;;;5.15;;
25936;SDS011;13733;51.178;4.450;2023-04-25T04:27:42;12.10;;;4.30;;
25936;SDS011;13733;51.178;4.450;2023-04-25T04:30:35;22.30;;;4.72;;
25936;SDS011;13733;51.178;4.450;2023-04-25T04:33:05;15.63;;;4.72;;
25936;SDS011;13733;51.178;4.450;2023-04-25T04:35:32;13.88;;;3.92;;
25936;SDS011;13733;51.178;4.450;2023-04-25T04:37:59;13.35;;;3.78;;
25936;SDS011;13733;51.178;4.450;2023-04-25T04:40:28;18.80;;;4.70;;
25936;SDS011;13733;51.178;4.450;2023-04-25T04:43:25;14.30;;;4.07;;
25936;SDS011;13733;51.178;4.450;2023-04-25T04:46:17;13.52;;;3.85;;
25936;SDS011;13733;51.178;4.450;2023-04-25T04:49:10;13.07;;;4.35;;
25936;SDS011;13733;51.178;4.450;2023-04-25T04:51:47;14.57;;;3.80;;
25936;SDS011;13733;51.178;4.450;2023-04-25T04:54:33;18.08;;;4.72;;
25936;SDS011;13733;51.178;4.450;2023-04-25T05:00:07;13.38;;;4.80;;
25936;SDS011;13733;51.178;4.450;2023-04-25T05:03:04;14.85;;;5.68;;
25936;SDS011;13733;51.178;4.450;2023-04-25T05:05:49;13.60;;;4.65;;
25936;SDS011;13733;51.178;4.450;2023-04-25T05:08:33;16.65;;;4.07;;
25936;SDS011;13733;51.178;4.450;2023-04-25T05:11:11;14.20;;;4.25;;
25936;SDS011;13733;51.178;4.450;2023-04-25T05:13:53;17.55;;;3.53;;
25936;SDS011;13733;51.178;4.450;2023-04-25T05:16:45;15.35;;;4.63;;
25936;SDS011;13733;51.178;4.450;2023-04-25T05:19:40;17.27;;;4.82;;
25936;SDS011;13733;51.178;4.450;2023-04-25T05:22:29;21.33;;;4.47;;
25936;SDS011;13733;51.178;4.450;2023-04-25T05:25:18;11.55;;;4.15;;
25936;SDS011;13733;51.178;4.450;2023-04-25T05:28:13;17.58;;;4.07;;
25936;SDS011;13733;51.178;4.450;2023-04-25T05:30:39;16.58;;;4.32;;
25936;SDS011;13733;51.178;4.450;2023-04-25T05:33:25;28.55;;;4.60;;
25936;SDS011;13733;51.178;4.450;2023-04-25T05:35:52;22.52;;;4.22;;
25936;SDS011;13733;51.178;4.450;2023-04-25T05:38:18;16.67;;;5.68;;
25936;SDS011;13733;51.178;4.450;2023-04-25T05:41:02;26.25;;;4.93;;
25936;SDS011;13733;51.178;4.450;2023-04-25T05:43:43;18.02;;;4.90;;
25936;SDS011;13733;51.178;4.450;2023-04-25T05:46:24;20.95;;;4.80;;
25936;SDS011;13733;51.178;4.450;2023-04-25T05:49:02;24.95;;;5.85;;
25936;SDS011;13733;51.178;4.450;2023-04-25T05:51:36;32.55;;;5.85;;
25936;SDS011;13733;51.178;4.450;2023-04-25T05:54:25;21.05;;;4.78;;
25936;SDS011;13733;51.178;4.450;2023-04-25T05:56:52;19.40;;;5.00;;
25936;SDS011;13733;51.178;4.450;2023-04-25T05:59:18;15.70;;;4.93;;
25936;SDS011;13733;51.178;4.450;2023-04-25T06:01:46;22.77;;;5.25;;
25936;SDS011;13733;51.178;4.450;2023-04-25T06:04:12;14.45;;;4.13;;
25936;SDS011;13733;51.178;4.450;2023-04-25T06:06:37;28.63;;;4.95;;
25936;SDS011;13733;51.178;4.450;2023-04-25T06:09:03;14.00;;;4.50;;
25936;SDS011;13733;51.178;4.450;2023-04-25T06:11:30;20.65;;;4.90;;
25936;SDS011;13733;51.178;4.450;2023-04-25T06:13:56;17.80;;;3.78;;
25936;SDS011;13733;51.178;4.450;2023-04-25T06:16:22;19.77;;;4.25;;
25936;SDS011;13733;51.178;4.450;2023-04-25T06:18:50;19.55;;;4.30;;
25936;SDS011;13733;51.178;4.450;2023-04-25T06:21:16;16.83;;;4.07;;
25936;SDS011;13733;51.178;4.450;2023-04-25T06:23:42;15.63;;;4.25;;
25936;SDS011;13733;51.178;4.450;2023-04-25T06:26:11;12.40;;;3.45;;
25936;SDS011;13733;51.178;4.450;2023-04-25T06:28:39;16.00;;;3.70;;
25936;SDS011;13733;51.178;4.450;2023-04-25T06:31:06;19.77;;;3.85;;
25936;SDS011;13733;51.178;4.450;2023-04-25T06:33:31;16.25;;;3.00;;
25936;SDS011;13733;51.178;4.450;2023-04-25T06:35:58;13.75;;;3.35;;
25936;SDS011;13733;51.178;4.450;2023-04-25T06:38:26;17.50;;;3.78;;
25936;SDS011;13733;51.178;4.450;2023-04-25T06:40:54;12.93;;;3.30;;
25936;SDS011;13733;51.178;4.450;2023-04-25T06:43:20;12.55;;;3.45;;
25936;SDS011;13733;51.178;4.450;2023-04-25T06:46:04;17.17;;;3.70;;
25936;SDS011;13733;51.178;4.450;2023-04-25T06:48:32;17.95;;;4.03;;
25936;SDS011;13733;51.178;4.450;2023-04-25T06:50:58;15.40;;;3.58;;
25936;SDS011;13733;51.178;4.450;2023-04-25T06:53:24;18.00;;;3.97;;
25936;SDS011;13733;51.178;4.450;2023-04-25T06:55:56;13.80;;;3.38;;
25936;SDS011;13733;51.178;4.450;2023-04-25T06:58:25;23.05;;;4.00;;
25936;SDS011;13733;51.178;4.450;2023-04-25T07:00:58;19.30;;;3.72;;
25936;SDS011;13733;51.178;4.450;2023-04-25T07:03:25;13.65;;;3.63;;
25936;SDS011;13733;51.178;4.450;2023-04-25T07:05:55;21.30;;;3.38;;
25936;SDS011;13733;51.178;4.450;2023-04-25T07:08:22;16.38;;;4.30;;
25936;SDS011;13733;51.178;4.450;2023-04-25T07:10:48;15.10;;;3.88;;
25936;SDS011;13733;51.178;4.450;2023-04-25T07:13:14;15.35;;;3.20;;
25936;SDS011;13733;51.178;4.450;2023-04-25T07:15:41;14.57;;;3.90;;
25936;SDS011;13733;51.178;4.450;2023-04-25T07:18:07;18.55;;;3.38;;
25936;SDS011;13733;51.178;4.450;2023-04-25T07:20:33;15.52;;;3.50;;
25936;SDS011;13733;51.178;4.450;2023-04-25T07:23:01;13.93;;;3.20;;
25936;SDS011;13733;51.178;4.450;2023-04-25T07:25:26;14.43;;;3.45;;
25936;SDS011;13733;51.178;4.450;2023-04-25T07:27:53;23.02;;;3.50;;
25936;SDS011;13733;51.178;4.450;2023-04-25T07:30:20;14.93;;;3.38;;
25936;SDS011;13733;51.178;4.450;2023-04-25T07:32:46;12.57;;;3.00;;
25936;SDS011;13733;51.178;4.450;2023-04-25T07:35:12;19.48;;;3.90;;
25936;SDS011;13733;51.178;4.450;2023-04-25T07:37:38;18.17;;;3.42;;
25936;SDS011;13733;51.178;4.450;2023-04-25T07:40:10;16.98;;;3.70;;
25936;SDS011;13733;51.178;4.450;2023-04-25T07:42:41;15.50;;;4.00;;
25936;SDS011;13733;51.178;4.450;2023-04-25T07:45:08;18.05;;;3.38;;
25936;SDS011;13733;51.178;4.450;2023-04-25T07:47:35;13.05;;;2.97;;
25936;SDS011;13733;51.178;4.450;2023-04-25T07:50:01;14.35;;;3.45;;
25936;SDS011;13733;51.178;4.450;2023-04-25T07:52:29;9.32;;;3.00;;
25936;SDS011;13733;51.178;4.450;2023-04-25T07:55:03;14.20;;;3.78;;
25936;SDS011;13733;51.178;4.450;2023-04-25T07:57:40;13.98;;;3.20;;
25936;SDS011;13733;51.178;4.450;2023-04-25T08:00:06;13.80;;;2.78;;
25936;SDS011;13733;51.178;4.450;2023-04-25T08:02:38;13.30;;;2.92;;
25936;SDS011;13733;51.178;4.450;2023-04-25T08:05:07;18.45;;;3.78;;
25936;SDS011;13733;51.178;4.450;2023-04-25T08:07:37;11.70;;;2.97;;
25936;SDS011;13733;51.178;4.450;2023-04-25T08:10:05;11.43;;;3.08;;
25936;SDS011;13733;51.178;4.450;2023-04-25T08:12:32;14.65;;;3.00;;
25936;SDS011;13733;51.178;4.450;2023-04-25T08:14:59;8.82;;;2.35;;
25936;SDS011;13733;51.178;4.450;2023-04-25T08:17:30;9.52;;;2.13;;
25936;SDS011;13733;51.178;4.450;2023-04-25T08:19:56;15.52;;;2.45;;
25936;SDS011;13733;51.178;4.450;2023-04-25T08:22:26;6.22;;;1.75;;
25936;SDS011;13733;51.178;4.450;2023-04-25T08:25:10;8.25;;;2.10;;
25936;SDS011;13733;51.178;4.450;2023-04-25T08:27:36;6.47;;;1.85;;
25936;SDS011;13733;51.178;4.450;2023-04-25T08:30:03;7.10;;;1.80;;
25936;SDS011;13733;51.178;4.450;2023-04-25T08:32:29;8.30;;;2.50;;
25936;SDS011;13733;51.178;4.450;2023-04-25T08:35:13;8.70;;;2.08;;
25936;SDS011;13733;51.178;4.450;2023-04-25T08:37:38;12.52;;;2.28;;
25936;SDS011;13733;51.178;4.450;2023-04-25T08:40:11;11.48;;;2.83;;
25936;SDS011;13733;51.178;4.450;2023-04-25T08:42:52;8.65;;;2.17;;
25936;SDS011;13733;51.178;4.450;2023-04-25T08:45:19;11.02;;;2.00;;
25936;SDS011;13733;51.178;4.450;2023-04-25T08:47:45;7.03;;;2.13;;
25936;SDS011;13733;51.178;4.450;2023-04-25T08:50:15;12.07;;;2.55;;
25936;SDS011;13733;51.178;4.450;2023-04-25T08:52:45;7.22;;;2.22;;
25936;SDS011;13733;51.178;4.450;2023-04-25T08:55:13;12.38;;;2.42;;
25936;SDS011;13733;51.178;4.450;2023-04-25T08:57:41;8.75;;;2.80;;
25936;SDS011;13733;51.178;4.450;2023-04-25T09:00:10;7.43;;;2.13;;
25936;SDS011;13733;51.178;4.450;2023-04-25T09:02:42;11.48;;;2.38;;
25936;SDS011;13733;51.178;4.450;2023-04-25T09:05:08;10.20;;;2.13;;
25936;SDS011;13733;51.178;4.450;2023-04-25T09:07:37;9.82;;;2.50;;
25936;SDS011;13733;51.178;4.450;2023-04-25T09:10:04;9.20;;;2.28;;
25936;SDS011;13733;51.178;4.450;2023-04-25T09:12:34;8.75;;;2.65;;
25936;SDS011;13733;51.178;4.450;2023-04-25T09:17:55;9.50;;;3.08;;
25936;SDS011;13733;51.178;4.450;2023-04-25T09:20:22;8.18;;;2.45;;
25936;SDS011;13733;51.178;4.450;2023-04-25T09:22:49;9.38;;;2.33;;
25936;SDS011;13733;51.178;4.450;2023-04-25T09:25:35;9.38;;;2.40;;
25936;SDS011;13733;51.178;4.450;2023-04-25T09:28:05;7.55;;;2.40;;
25936;SDS011;13733;51.178;4.450;2023-04-25T09:30:35;9.65;;;2.10;;
25936;SDS011;13733;51.178;4.450;2023-04-25T09:33:23;10.13;;;2.40;;
25936;SDS011;13733;51.178;4.450;2023-04-25T09:35:53;9.40;;;2.10;;
25936;SDS011;13733;51.178;4.450;2023-04-25T09:38:46;7.40;;;2.03;;
25936;SDS011;13733;51.178;4.450;2023-04-25T09:41:24;12.98;;;2.30;;
25936;SDS011;13733;51.178;4.450;2023-04-25T09:43:52;6.75;;;1.73;;
25936;SDS011;13733;51.178;4.450;2023-04-25T09:46:25;7.70;;;1.80;;
25936;SDS011;13733;51.178;4.450;2023-04-25T09:48:57;4.95;;;1.70;;
25936;SDS011;13733;51.178;4.450;2023-04-25T09:51:34;5.10;;;1.58;;
25936;SDS011;13733;51.178;4.450;2023-04-25T09:54:00;6.20;;;1.50;;
25936;SDS011;13733;51.178;4.450;2023-04-25T09:56:40;8.70;;;1.88;;
25936;SDS011;13733;51.178;4.450;2023-04-25T09:59:07;10.13;;;2.17;;
25936;SDS011;13733;51.178;4.450;2023-04-25T10:01:35;6.68;;;1.80;;
25936;SDS011;13733;51.178;4.450;2023-04-25T10:04:12;4.55;;;1.50;;
25936;SDS011;13733;51.178;4.450;2023-04-25T10:06:51;7.10;;;1.80;;
25936;SDS011;13733;51.178;4.450;2023-04-25T10:09:20;8.43;;;1.75;;
25936;SDS011;13733;51.178;4.450;2023-04-25T10:11:50;6.85;;;1.80;;
25936;SDS011;13733;51.178;4.450;2023-04-25T10:14:17;10.30;;;2.10;;
25936;SDS011;13733;51.178;4.450;2023-04-25T10:16:43;6.72;;;1.85;;
25936;SDS011;13733;51.178;4.450;2023-04-25T10:19:10;7.18;;;1.73;;
25936;SDS011;13733;51.178;4.450;2023-04-25T10:21:40;8.52;;;2.05;;
25936;SDS011;13733;51.178;4.450;2023-04-25T10:24:13;12.75;;;2.72;;
25936;SDS011;13733;51.178;4.450;2023-04-25T10:26:40;9.73;;;2.20;;
25936;SDS011;13733;51.178;4.450;2023-04-25T10:29:06;9.50;;;1.90;;
25936;SDS011;13733;51.178;4.450;2023-04-25T10:31:34;10.18;;;2.08;;
25936;SDS011;13733;51.178;4.450;2023-04-25T10:34:10;7.20;;;2.00;;
25936;SDS011;13733;51.178;4.450;2023-04-25T10:36:36;11.30;;;2.05;;
25936;SDS011;13733;51.178;4.450;2023-04-25T10:39:05;4.95;;;1.98;;
25936;SDS011;13733;51.178;4.450;2023-04-25T10:41:46;10.98;;;1.80;;
25936;SDS011;13733;51.178;4.450;2023-04-25T10:44:16;6.65;;;1.90;;
25936;SDS011;13733;51.178;4.450;2023-04-25T10:46:43;11.73;;;2.38;;
25936;SDS011;13733;51.178;4.450;2023-04-25T10:49:10;7.95;;;2.42;;
25936;SDS011;13733;51.178;4.450;2023-04-25T10:51:58;5.95;;;1.92;;
25936;SDS011;13733;51.178;4.450;2023-04-25T10:54:42;7.10;;;2.15;;
25936;SDS011;13733;51.178;4.450;2023-04-25T11:00:09;9.50;;;2.30;;
25936;SDS011;13733;51.178;4.450;2023-04-25T11:03:16;11.73;;;2.47;;
25936;SDS011;13733;51.178;4.450;2023-04-25T11:05:32;5.40;;;1.90;;
25936;SDS011;13733;51.178;4.450;2023-04-25T11:08:00;7.25;;;2.00;;
25936;SDS011;13733;51.178;4.450;2023-04-25T11:10:26;8.00;;;2.30;;
25936;SDS011;13733;51.178;4.450;2023-04-25T11:12:54;5.25;;;2.00;;
25936;SDS011;13733;51.178;4.450;2023-04-25T11:15:20;5.93;;;1.95;;
25936;SDS011;13733;51.178;4.450;2023-04-25T11:17:46;6.18;;;2.63;;
25936;SDS011;13733;51.178;4.450;2023-04-25T11:20:12;6.57;;;1.85;;
25936;SDS011;13733;51.178;4.450;2023-04-25T11:22:39;5.10;;;1.67;;
25936;SDS011;13733;51.178;4.450;2023-04-25T11:25:08;7.05;;;1.80;;
25936;SDS011;13733;51.178;4.450;2023-04-25T11:30:24;6.05;;;2.20;;
25936;SDS011;13733;51.178;4.450;2023-04-25T11:32:51;7.82;;;1.80;;
25936;SDS011;13733;51.178;4.450;2023-04-25T11:35:17;7.45;;;2.10;;
25936;SDS011;13733;51.178;4.450;2023-04-25T11:37:48;5.38;;;1.80;;
25936;SDS011;13733;51.178;4.450;2023-04-25T11:40:15;6.28;;;1.70;;
25936;SDS011;13733;51.178;4.450;2023-04-25T11:42:46;4.47;;;1.50;;
25936;SDS011;13733;51.178;4.450;2023-04-25T11:45:12;5.15;;;1.75;;
25936;SDS011;13733;51.178;4.450;2023-04-25T11:47:38;5.47;;;1.88;;
25936;SDS011;13733;51.178;4.450;2023-04-25T11:50:05;8.00;;;1.83;;
25936;SDS011;13733;51.178;4.450;2023-04-25T11:52:39;6.82;;;1.67;;
25936;SDS011;13733;51.178;4.450;2023-04-25T11:55:10;7.80;;;2.08;;
25936;SDS011;13733;51.178;4.450;2023-04-25T11:57:42;6.90;;;1.70;;
25936;SDS011;13733;51.178;4.450;2023-04-25T12:00:10;10.60;;;1.92;;
25936;SDS011;13733;51.178;4.450;2023-04-25T12:02:41;12.30;;;2.35;;
25936;SDS011;13733;51.178;4.450;2023-04-25T12:05:08;9.82;;;2.10;;
25936;SDS011;13733;51.178;4.450;2023-04-25T12:07:34;8.48;;;1.80;;
25936;SDS011;13733;51.178;4.450;2023-04-25T12:10:04;6.47;;;1.67;;
25936;SDS011;13733;51.178;4.450;2023-04-25T12:12:34;8.90;;;2.28;;
25936;SDS011;13733;51.178;4.450;2023-04-25T12:17:48;4.00;;;1.63;;
25936;SDS011;13733;51.178;4.450;2023-04-25T12:20:18;5.60;;;1.90;;
25936;SDS011;13733;51.178;4.450;2023-04-25T12:22:46;7.78;;;2.10;;
25936;SDS011;13733;51.178;4.450;2023-04-25T12:25:13;8.90;;;1.67;;
25936;SDS011;13733;51.178;4.450;2023-04-25T12:33:23;4.93;;;1.70;;
25936;SDS011;13733;51.178;4.450;2023-04-25T12:35:49;7.35;;;1.70;;
25936;SDS011;13733;51.178;4.450;2023-04-25T12:38:25;7.65;;;1.58;;
25936;SDS011;13733;51.178;4.450;2023-04-25T12:40:56;9.55;;;1.95;;
25936;SDS011;13733;51.178;4.450;2023-04-25T12:43:23;8.02;;;1.30;;
25936;SDS011;13733;51.178;4.450;2023-04-25T12:45:49;6.70;;;1.73;;
25936;SDS011;13733;51.178;4.450;2023-04-25T12:48:17;5.90;;;1.70;;
25936;SDS011;13733;51.178;4.450;2023-04-25T12:50:43;5.30;;;1.65;;
25936;SDS011;13733;51.178;4.450;2023-04-25T12:53:09;8.18;;;2.40;;
25936;SDS011;13733;51.178;4.450;2023-04-25T12:55:36;10.52;;;2.33;;
25936;SDS011;13733;51.178;4.450;2023-04-25T12:58:02;6.85;;;2.10;;
25936;SDS011;13733;51.178;4.450;2023-04-25T13:00:29;8.75;;;1.88;;
25936;SDS011;13733;51.178;4.450;2023-04-25T13:02:55;8.68;;;1.90;;
25936;SDS011;13733;51.178;4.450;2023-04-25T13:05:21;9.82;;;2.13;;
25936;SDS011;13733;51.178;4.450;2023-04-25T13:07:47;7.20;;;1.88;;
25936;SDS011;13733;51.178;4.450;2023-04-25T13:10:14;7.60;;;2.10;;
25936;SDS011;13733;51.178;4.450;2023-04-25T13:12:39;9.13;;;1.95;;
25936;SDS011;13733;51.178;4.450;2023-04-25T13:15:05;8.57;;;1.85;;
25936;SDS011;13733;51.178;4.450;2023-04-25T13:17:34;5.72;;;1.40;;
25936;SDS011;13733;51.178;4.450;2023-04-25T13:20:00;8.38;;;1.92;;
25936;SDS011;13733;51.178;4.450;2023-04-25T13:22:25;6.10;;;1.70;;
25936;SDS011;13733;51.178;4.450;2023-04-25T13:24:51;8.25;;;1.80;;
25936;SDS011;13733;51.178;4.450;2023-04-25T13:27:17;8.05;;;1.83;;
25936;SDS011;13733;51.178;4.450;2023-04-25T13:29:42;9.35;;;1.88;;
25936;SDS011;13733;51.178;4.450;2023-04-25T13:32:08;10.07;;;1.70;;
25936;SDS011;13733;51.178;4.450;2023-04-25T13:34:34;6.43;;;1.70;;
25936;SDS011;13733;51.178;4.450;2023-04-25T13:37:00;8.40;;;1.80;;
25936;SDS011;13733;51.178;4.450;2023-04-25T13:39:25;10.70;;;2.22;;
25936;SDS011;13733;51.178;4.450;2023-04-25T13:41:51;7.85;;;2.17;;
25936;SDS011;13733;51.178;4.450;2023-04-25T13:44:17;8.25;;;1.98;;
25936;SDS011;13733;51.178;4.450;2023-04-25T13:46:43;7.85;;;1.77;;
25936;SDS011;13733;51.178;4.450;2023-04-25T13:49:09;8.35;;;1.73;;
25936;SDS011;13733;51.178;4.450;2023-04-25T13:51:34;8.48;;;1.70;;
25936;SDS011;13733;51.178;4.450;2023-04-25T13:54:00;5.32;;;2.10;;
25936;SDS011;13733;51.178;4.450;2023-04-25T13:56:26;7.40;;;1.95;;
25936;SDS011;13733;51.178;4.450;2023-04-25T13:58:52;7.18;;;2.55;;
25936;SDS011;13733;51.178;4.450;2023-04-25T14:01:18;5.80;;;1.42;;
25936;SDS011;13733;51.178;4.450;2023-04-25T14:03:45;5.80;;;1.98;;
25936;SDS011;13733;51.178;4.450;2023-04-25T14:06:11;11.30;;;2.17;;
25936;SDS011;13733;51.178;4.450;2023-04-25T14:08:38;6.22;;;1.90;;
25936;SDS011;13733;51.178;4.450;2023-04-25T14:11:04;6.78;;;2.00;;
25936;SDS011;13733;51.178;4.450;2023-04-25T14:13:30;7.18;;;1.88;;
25936;SDS011;13733;51.178;4.450;2023-04-25T14:15:56;10.55;;;1.73;;
25936;SDS011;13733;51.178;4.450;2023-04-25T14:18:22;3.25;;;1.35;;
25936;SDS011;13733;51.178;4.450;2023-04-25T14:20:48;7.13;;;1.52;;
25936;SDS011;13733;51.178;4.450;2023-04-25T14:23:13;6.47;;;1.65;;
25936;SDS011;13733;51.178;4.450;2023-04-25T14:25:39;6.18;;;2.00;;
25936;SDS011;13733;51.178;4.450;2023-04-25T14:28:07;4.20;;;1.70;;
25936;SDS011;13733;51.178;4.450;2023-04-25T14:30:33;9.73;;;1.95;;
25936;SDS011;13733;51.178;4.450;2023-04-25T14:32:58;8.77;;;2.05;;
25936;SDS011;13733;51.178;4.450;2023-04-25T14:35:24;6.88;;;1.90;;
25936;SDS011;13733;51.178;4.450;2023-04-25T14:37:50;5.47;;;1.58;;
25936;SDS011;13733;51.178;4.450;2023-04-25T14:40:17;9.02;;;1.90;;
25936;SDS011;13733;51.178;4.450;2023-04-25T14:42:43;8.02;;;1.95;;
25936;SDS011;13733;51.178;4.450;2023-04-25T14:45:09;7.65;;;1.80;;
25936;SDS011;13733;51.178;4.450;2023-04-25T14:47:37;5.38;;;1.90;;
25936;SDS011;13733;51.178;4.450;2023-04-25T14:50:04;5.85;;;1.77;;
25936;SDS011;13733;51.178;4.450;2023-04-25T14:52:32;7.07;;;2.00;;
25936;SDS011;13733;51.178;4.450;2023-04-25T14:54:58;8.98;;;2.33;;
25936;SDS011;13733;51.178;4.450;2023-04-25T14:57:26;8.55;;;1.98;;
25936;SDS011;13733;51.178;4.450;2023-04-25T14:59:52;6.82;;;1.95;;
25936;SDS011;13733;51.178;4.450;2023-04-25T15:02:18;9.65;;;2.40;;
25936;SDS011;13733;51.178;4.450;2023-04-25T15:04:44;6.88;;;2.00;;
25936;SDS011;13733;51.178;4.450;2023-04-25T15:07:10;5.72;;;2.10;;
25936;SDS011;13733;51.178;4.450;2023-04-25T15:09:36;6.95;;;1.95;;
25936;SDS011;13733;51.178;4.450;2023-04-25T15:12:02;8.85;;;2.15;;
25936;SDS011;13733;51.178;4.450;2023-04-25T15:14:27;6.80;;;2.08;;